createdAt,value
2022-08-25T00:00:14.739Z,100718.00
2022-08-25T00:02:41.580Z,100714.09
2022-08-25T00:05:21.415Z,100711.34
2022-08-25T00:07:47.992Z,100707.94
2022-08-25T00:10:14.301Z,100715.44
2022-08-25T00:12:40.605Z,100713.59
2022-08-25T00:15:06.964Z,100712.28
2022-08-25T00:17:33.263Z,100714.00
2022-08-25T00:19:59.640Z,100705.66
2022-08-25T00:22:25.946Z,100708.56
2022-08-25T00:24:52.264Z,100717.06
2022-08-25T00:27:18.557Z,100713.50
2022-08-25T00:29:44.880Z,100714.66
2022-08-25T00:32:11.180Z,100719.59
2022-08-25T00:34:37.519Z,100708.00
2022-08-25T00:37:03.823Z,100711.91
2022-08-25T00:39:30.513Z,100703.19
2022-08-25T00:41:57.514Z,100698.25
2022-08-25T00:44:23.777Z,100707.13
2022-08-25T00:46:50.075Z,100709.84
2022-08-25T00:49:24.914Z,100696.53
2022-08-25T00:51:51.814Z,100690.41
2022-08-25T00:54:18.460Z,100697.53
2022-08-25T00:56:45.248Z,100694.31
2022-08-25T00:59:11.633Z,100692.38
2022-08-25T01:01:38.098Z,100693.91
2022-08-25T01:04:04.420Z,100693.91
2022-08-25T01:06:30.781Z,100690.50
2022-08-25T01:08:57.379Z,100688.44
2022-08-25T01:11:23.684Z,100691.34
2022-08-25T01:13:50.169Z,100695.56
2022-08-25T01:16:16.627Z,100684.69
2022-08-25T01:18:43.017Z,100689.25
2022-08-25T01:21:09.320Z,100693.69
2022-08-25T01:23:35.630Z,100692.31
2022-08-25T01:26:01.940Z,100692.66
2022-08-25T01:28:28.246Z,100688.38
2022-08-25T01:30:54.648Z,100695.66
2022-08-25T01:33:22.331Z,100693.66
2022-08-25T01:35:48.636Z,100691.25
2022-08-25T01:38:14.945Z,100694.13
2022-08-25T01:40:41.272Z,100689.38
2022-08-25T01:43:07.812Z,100688.19
2022-08-25T01:45:34.412Z,100687.50
2022-08-25T01:48:00.819Z,100687.84
2022-08-25T01:50:27.187Z,100686.84
2022-08-25T01:52:53.490Z,100683.09
2022-08-25T01:55:19.798Z,100688.38
2022-08-25T01:57:46.311Z,100691.47
2022-08-25T02:00:13.933Z,100690.63
2022-08-25T02:02:42.825Z,100695.72
2022-08-25T02:05:10.357Z,100687.69
2022-08-25T02:07:36.657Z,100694.16
2022-08-25T02:10:04.375Z,100691.41
2022-08-25T02:12:36.029Z,100689.38
2022-08-25T02:15:02.336Z,100688.88
2022-08-25T02:17:28.642Z,100686.28
2022-08-25T02:19:56.891Z,100685.25
2022-08-25T02:22:23.203Z,100686.28
2022-08-25T02:24:49.500Z,100688.88
2022-08-25T02:27:15.816Z,100680.28
2022-08-25T02:29:42.114Z,100681.63
2022-08-25T02:32:10.284Z,100688.91
2022-08-25T02:34:37.127Z,100681.47
2022-08-25T02:37:03.472Z,100685.59
2022-08-25T02:39:29.804Z,100680.63
2022-08-25T02:41:56.116Z,100686.09
2022-08-25T02:44:22.411Z,100682.31
2022-08-25T02:46:48.869Z,100685.59
2022-08-25T02:49:15.168Z,100693.53
2022-08-25T02:51:41.483Z,100681.78
2022-08-25T02:54:07.825Z,100691.13
2022-08-25T02:56:34.135Z,100673.53
2022-08-25T02:59:00.699Z,100682.91
2022-08-25T03:01:28.934Z,100671.66
2022-08-25T03:03:55.462Z,100672.69
2022-08-25T03:06:24.199Z,100679.66
2022-08-25T03:08:50.591Z,100669.41
2022-08-25T03:11:17.820Z,100680.28
2022-08-25T03:13:44.169Z,100674.34
2022-08-25T03:16:11.291Z,100665.56
2022-08-25T03:18:38.699Z,100662.84
2022-08-25T03:21:05.015Z,100660.41
2022-08-25T03:23:31.319Z,100658.94
2022-08-25T03:26:16.469Z,100653.47
2022-08-25T03:28:42.795Z,100663.34
2022-08-25T03:31:09.113Z,100663.88
2022-08-25T03:33:35.420Z,100665.59
2022-08-25T03:36:01.733Z,100664.09
2022-08-25T03:38:28.024Z,100659.41
2022-08-25T03:40:54.345Z,100654.25
2022-08-25T03:43:20.646Z,100658.00
2022-08-25T03:45:47.710Z,100663.47
2022-08-25T03:48:14.265Z,100660.19
2022-08-25T03:50:40.582Z,100657.91
2022-08-25T03:53:07.463Z,100659.69
2022-08-25T03:55:37.145Z,100656.47
2022-08-25T03:58:03.550Z,100653.28
2022-08-25T04:00:30.353Z,100650.22
2022-08-25T04:02:56.655Z,100648.19
2022-08-25T04:05:23.224Z,100656.50
2022-08-25T04:07:53.105Z,100651.06
2022-08-25T04:10:20.446Z,100656.84
2022-08-25T04:12:49.257Z,100663.94
2022-08-25T04:15:15.580Z,100659.81
2022-08-25T04:17:41.904Z,100673.09
2022-08-25T04:20:08.725Z,100661.69
2022-08-25T04:22:36.886Z,100660.38
2022-08-25T04:25:03.768Z,100658.66
2022-08-25T04:27:30.067Z,100648.31
2022-08-25T04:29:56.679Z,100661.91
2022-08-25T04:32:22.981Z,100662.06
2022-08-25T04:34:49.364Z,100656.00
2022-08-25T04:37:15.667Z,100650.91
2022-08-25T04:39:42.104Z,100645.47
2022-08-25T04:42:08.400Z,100652.44
2022-08-25T04:44:34.719Z,100651.41
2022-08-25T04:47:01.046Z,100653.28
2022-08-25T04:49:28.069Z,100648.53
2022-08-25T04:51:54.345Z,100656.19
2022-08-25T04:54:23.748Z,100657.41
2022-08-25T04:56:50.076Z,100655.47
2022-08-25T04:59:20.925Z,100656.53
2022-08-25T05:01:47.294Z,100659.28
2022-08-25T05:04:28.544Z,100655.59
2022-08-25T05:06:55.353Z,100652.88
2022-08-25T05:09:21.768Z,100666.56
2022-08-25T05:11:48.209Z,100666.91
2022-08-25T05:14:18.126Z,100669.97
2022-08-25T05:16:45.008Z,100677.66
2022-08-25T05:19:11.351Z,100673.75
2022-08-25T05:21:37.795Z,100671.41
2022-08-25T05:24:04.086Z,100670.53
2022-08-25T05:26:30.749Z,100678.06
2022-08-25T05:28:57.048Z,100678.63
2022-08-25T05:31:23.441Z,100671.25
2022-08-25T05:33:49.815Z,100669.72
2022-08-25T05:36:16.132Z,100677.56
2022-08-25T05:38:42.658Z,100676.13
2022-08-25T05:41:10.646Z,100673.59
2022-08-25T05:43:36.949Z,100669.53
2022-08-25T05:46:03.379Z,100672.78
2022-08-25T05:48:30.771Z,100672.22
2022-08-25T05:50:57.215Z,100666.47
2022-08-25T05:53:23.541Z,100665.97
2022-08-25T05:55:49.837Z,100662.91
2022-08-25T05:58:16.196Z,100654.63
2022-08-25T06:00:42.992Z,100665.88
2022-08-25T06:03:09.360Z,100660.25
2022-08-25T06:05:35.702Z,100667.59
2022-08-25T06:08:02.058Z,100665.91
2022-08-25T06:10:28.435Z,100651.75
2022-08-25T06:12:54.732Z,100655.69
2022-08-25T06:15:23.082Z,100655.66
2022-08-25T06:17:49.388Z,100660.09
2022-08-25T06:20:15.877Z,100662.81
2022-08-25T06:22:42.177Z,100657.38
2022-08-25T06:25:09.583Z,100657.53
2022-08-25T06:27:35.889Z,100656.69
2022-08-25T06:30:08.030Z,100658.72
2022-08-25T06:32:35.810Z,100653.06
2022-08-25T06:35:02.197Z,100659.78
2022-08-25T06:37:28.510Z,100659.75
2022-08-25T06:39:55.630Z,100653.94
2022-08-25T06:42:21.966Z,100646.94
2022-08-25T06:44:48.269Z,100649.25
2022-08-25T06:47:15.833Z,100650.03
2022-08-25T06:49:42.444Z,100649.28
2022-08-25T06:52:08.937Z,100652.16
2022-08-25T06:54:35.241Z,100654.81
2022-08-25T06:57:01.562Z,100649.94
2022-08-25T06:59:32.105Z,100658.41
2022-08-25T07:01:59.415Z,100647.78
2022-08-25T07:04:26.069Z,100641.50
2022-08-25T07:06:56.027Z,100650.78
2022-08-25T07:09:22.338Z,100641.69
2022-08-25T07:11:48.665Z,100645.47
2022-08-25T07:14:16.070Z,100649.78
2022-08-25T07:16:47.214Z,100650.88
2022-08-25T07:19:15.912Z,100651.53
2022-08-25T07:21:42.401Z,100650.44
2022-08-25T07:24:11.691Z,100647.91
2022-08-25T07:26:38.969Z,100637.41
2022-08-25T07:29:05.552Z,100645.47
2022-08-25T07:31:31.996Z,100647.53
2022-08-25T07:34:16.815Z,100645.28
2022-08-25T07:36:43.363Z,100645.84
2022-08-25T07:39:09.671Z,100641.47
2022-08-25T07:41:36.013Z,100646.41
2022-08-25T07:44:02.312Z,100636.75
2022-08-25T07:46:28.643Z,100639.34
2022-08-25T07:48:55.024Z,100639.91
2022-08-25T07:51:21.387Z,100639.38
2022-08-25T07:53:48.836Z,100637.00
2022-08-25T07:56:15.185Z,100638.06
2022-08-25T07:58:42.261Z,100639.34
2022-08-25T08:01:08.683Z,100625.44
2022-08-25T08:03:50.074Z,100631.34
2022-08-25T08:09:07.647Z,100636.31
2022-08-25T08:11:34.455Z,100635.44
2022-08-25T08:14:00.701Z,100636.09
2022-08-25T08:16:27.053Z,100635.97
2022-08-25T08:18:53.413Z,100634.63
2022-08-25T08:21:20.143Z,100627.84
2022-08-25T08:23:47.169Z,100625.91
2022-08-25T08:26:13.520Z,100633.50
2022-08-25T08:28:39.841Z,100616.81
2022-08-25T08:31:06.627Z,100619.38
2022-08-25T08:33:40.734Z,100617.56
2022-08-25T08:36:07.363Z,100611.38
2022-08-25T08:38:33.851Z,100617.22
2022-08-25T08:41:21.848Z,100607.38
2022-08-25T08:43:50.048Z,100610.13
2022-08-25T08:46:17.009Z,100592.19
2022-08-25T08:48:43.384Z,100604.78
2022-08-25T08:51:10.013Z,100605.06
2022-08-25T08:53:36.376Z,100598.59
2022-08-25T08:56:02.705Z,100592.03
2022-08-25T08:58:29.028Z,100597.53
2022-08-25T09:00:55.825Z,100597.22
2022-08-25T09:03:24.546Z,100591.81
2022-08-25T09:05:51.383Z,100586.31
2022-08-25T09:08:20.394Z,100583.22
2022-08-25T09:10:47.059Z,100577.47
2022-08-25T09:13:15.440Z,100581.56
2022-08-25T09:16:01.374Z,100583.97
2022-08-25T09:18:27.756Z,100577.09
2022-08-25T09:20:54.071Z,100570.50
2022-08-25T09:23:20.772Z,100581.31
2022-08-25T09:25:52.739Z,100571.09
2022-08-25T09:28:20.727Z,100568.16
2022-08-25T09:30:47.230Z,100562.22
2022-08-25T09:33:13.635Z,100561.81
2022-08-25T09:35:47.403Z,100551.44
2022-08-25T09:38:16.242Z,100552.53
2022-08-25T09:40:42.634Z,100550.63
2022-08-25T09:43:08.937Z,100548.03
2022-08-25T09:45:35.309Z,100549.88
2022-08-25T09:48:02.638Z,100545.66
2022-08-25T09:50:29.036Z,100539.59
2022-08-25T09:52:55.359Z,100525.97
2022-08-25T09:55:21.698Z,100537.59
2022-08-25T09:57:53.049Z,100535.88
2022-08-25T10:00:19.605Z,100521.69
2022-08-25T10:02:45.928Z,100517.88
2022-08-25T10:05:12.275Z,100520.19
2022-08-25T10:07:38.644Z,100512.56
2022-08-25T10:10:07.558Z,100499.78
2022-08-25T10:12:36.300Z,100514.16
2022-08-25T10:15:09.181Z,100515.22
2022-08-25T10:17:35.655Z,100499.44
2022-08-25T10:20:01.972Z,100496.69
2022-08-25T10:22:34.284Z,100500.25
2022-08-25T10:25:00.580Z,100494.34
2022-08-25T10:27:30.997Z,100495.66
2022-08-25T10:29:57.304Z,100479.34
2022-08-25T10:32:27.919Z,100475.63
2022-08-25T10:34:54.532Z,100473.13
2022-08-25T10:37:20.874Z,100478.66
2022-08-25T10:39:54.904Z,100480.41
2022-08-25T10:42:25.860Z,100474.03
2022-08-25T10:45:14.812Z,100477.91
2022-08-25T10:47:44.554Z,100467.28
2022-08-25T10:50:10.913Z,100462.13
2022-08-25T10:52:38.145Z,100454.75
2022-08-25T10:55:04.883Z,100451.72
2022-08-25T10:57:31.160Z,100448.28
2022-08-25T10:59:57.507Z,100450.47
2022-08-25T11:02:27.923Z,100440.78
2022-08-25T11:04:54.783Z,100438.81
2022-08-25T11:07:21.209Z,100439.84
2022-08-25T11:09:49.241Z,100451.41
2022-08-25T11:12:15.727Z,100441.41
2022-08-25T11:14:42.981Z,100435.25
2022-08-25T11:17:09.390Z,100431.13
2022-08-25T11:19:35.724Z,100426.97
2022-08-25T11:22:02.099Z,100433.34
2022-08-25T11:24:28.395Z,100424.31
2022-08-25T11:26:54.712Z,100434.41
2022-08-25T11:29:21.795Z,100424.63
2022-08-25T11:31:52.755Z,100430.69
2022-08-25T11:34:19.756Z,100428.50
2022-08-25T11:36:46.488Z,100423.69
2022-08-25T11:39:12.748Z,100423.97
2022-08-25T11:41:40.617Z,100410.88
2022-08-25T11:44:06.944Z,100411.81
2022-08-25T11:46:33.289Z,100407.22
2022-08-25T11:48:59.640Z,100401.84
2022-08-25T11:51:26.250Z,100409.88
2022-08-25T11:53:57.173Z,100403.84
2022-08-25T11:56:23.536Z,100404.31
2022-08-25T11:58:50.173Z,100401.16
2022-08-25T12:01:16.452Z,100396.34
2022-08-25T12:03:43.043Z,100398.94
2022-08-25T12:06:12.930Z,100394.03
2022-08-25T12:08:39.540Z,100390.28
2022-08-25T12:11:11.222Z,100394.16
2022-08-25T12:13:38.340Z,100382.44
2022-08-25T12:16:04.743Z,100370.16
2022-08-25T12:18:31.100Z,100365.38
2022-08-25T12:20:57.417Z,100367.06
2022-08-25T12:23:23.734Z,100370.59
2022-08-25T12:25:51.089Z,100359.56
2022-08-25T12:28:17.463Z,100367.75
2022-08-25T12:30:45.891Z,100351.53
2022-08-25T12:33:14.119Z,100361.03
2022-08-25T12:35:41.140Z,100354.53
2022-08-25T12:38:08.883Z,100354.63
2022-08-25T12:40:35.507Z,100358.25
2022-08-25T12:43:02.104Z,100357.81
2022-08-25T12:45:28.439Z,100355.78
2022-08-25T12:47:57.429Z,100346.66
2022-08-25T12:50:24.335Z,100354.19
2022-08-25T12:52:51.033Z,100347.44
2022-08-25T12:55:17.338Z,100345.50
2022-08-25T12:57:43.676Z,100340.38
2022-08-25T13:00:12.775Z,100344.16
2022-08-25T13:02:39.773Z,100343.22
2022-08-25T13:05:16.045Z,100344.53
2022-08-25T13:07:42.460Z,100332.72
2022-08-25T13:10:08.763Z,100339.66
2022-08-25T13:12:35.070Z,100325.56
2022-08-25T13:15:01.457Z,100321.97
2022-08-25T13:17:28.203Z,100330.63
2022-08-25T13:19:55.387Z,100330.44
2022-08-25T13:22:22.055Z,100320.94
2022-08-25T13:24:52.122Z,100319.88
2022-08-25T13:27:22.685Z,100313.19
2022-08-25T13:29:49.347Z,100300.09
2022-08-25T13:32:17.599Z,100301.88
2022-08-25T13:34:44.056Z,100301.75
2022-08-25T13:37:31.187Z,100304.63
2022-08-25T13:39:58.799Z,100295.94
2022-08-25T13:42:28.859Z,100299.72
2022-08-25T13:44:55.846Z,100300.84
2022-08-25T13:47:23.148Z,100294.69
2022-08-25T13:49:50.068Z,100296.44
2022-08-25T13:52:18.508Z,100288.22
2022-08-25T13:54:45.012Z,100287.84
2022-08-25T13:57:12.080Z,100280.41
2022-08-25T13:59:40.099Z,100287.41
2022-08-25T14:02:06.821Z,100287.69
2022-08-25T14:04:33.947Z,100289.78
2022-08-25T14:07:00.260Z,100289.91
2022-08-25T14:09:28.202Z,100286.81
2022-08-25T14:11:54.819Z,100298.41
2022-08-25T14:14:22.067Z,100283.97
2022-08-25T14:16:49.431Z,100282.78
2022-08-25T14:19:19.808Z,100274.91
2022-08-25T14:21:46.520Z,100278.44
2022-08-25T14:24:16.045Z,100277.59
2022-08-25T14:26:54.394Z,100279.66
2022-08-25T14:29:22.026Z,100268.94
2022-08-25T14:31:48.426Z,100275.53
2022-08-25T14:34:15.160Z,100275.28
2022-08-25T14:36:42.566Z,100267.25
2022-08-25T14:39:11.171Z,100259.16
2022-08-25T14:41:37.473Z,100259.03
2022-08-25T14:44:05.059Z,100256.25
2022-08-25T14:46:31.312Z,100252.78
2022-08-25T14:48:57.700Z,100256.97
2022-08-25T14:51:24.086Z,100253.84
2022-08-25T14:53:51.521Z,100252.97
2022-08-25T14:56:17.755Z,100250.94
2022-08-25T14:58:51.083Z,100252.00
2022-08-25T15:01:28.450Z,100242.91
2022-08-25T15:03:56.011Z,100246.16
2022-08-25T15:06:22.353Z,100239.97
2022-08-25T15:09:07.273Z,100237.22
2022-08-25T15:11:34.210Z,100242.69
2022-08-25T15:14:01.629Z,100241.88
2022-08-25T15:16:33.963Z,100232.81
2022-08-25T15:19:01.657Z,100229.72
2022-08-25T15:21:32.860Z,100237.91
2022-08-25T15:24:00.344Z,100236.91
2022-08-25T15:26:26.648Z,100241.50
2022-08-25T15:28:52.993Z,100237.06
2022-08-25T15:31:20.045Z,100238.63
2022-08-25T15:33:46.619Z,100236.84
2022-08-25T15:36:15.215Z,100237.28
2022-08-25T15:38:41.758Z,100238.06
2022-08-25T15:41:08.347Z,100237.22
2022-08-25T15:43:36.747Z,100234.75
2022-08-25T15:46:03.079Z,100232.59
2022-08-25T15:48:29.635Z,100227.63
2022-08-25T15:50:56.723Z,100227.09
2022-08-25T15:53:23.019Z,100230.22
2022-08-25T15:55:52.375Z,100220.00
2022-08-25T15:58:20.475Z,100218.56
2022-08-25T16:00:56.259Z,100208.66
2022-08-25T16:03:23.082Z,100212.78
2022-08-25T16:05:50.358Z,100216.03
2022-08-25T16:08:19.379Z,100218.00
2022-08-25T16:10:46.274Z,100220.88
2022-08-25T16:13:12.586Z,100216.50
2022-08-25T16:15:38.893Z,100208.16
2022-08-25T16:18:05.259Z,100206.69
2022-08-25T16:20:31.675Z,100215.13
2022-08-25T16:23:00.586Z,100201.44
2022-08-25T16:25:26.906Z,100203.25
2022-08-25T16:27:53.131Z,100199.19
2022-08-25T16:30:19.427Z,100195.81
2022-08-25T16:32:46.541Z,100199.09
2022-08-25T16:35:13.191Z,100201.47
2022-08-25T16:37:42.850Z,100207.28
2022-08-25T16:40:10.224Z,100203.19
2022-08-25T16:42:37.002Z,100199.50
2022-08-25T16:45:05.165Z,100192.31
2022-08-25T16:47:34.379Z,100200.50
2022-08-25T16:50:00.681Z,100202.34
2022-08-25T16:52:46.328Z,100199.44
2022-08-25T16:55:12.775Z,100211.47
2022-08-25T16:57:39.071Z,100205.81
2022-08-25T17:00:05.557Z,100206.31
2022-08-25T17:02:31.873Z,100203.25
2022-08-25T17:04:59.193Z,100202.00
2022-08-25T17:07:26.171Z,100202.44
2022-08-25T17:09:53.084Z,100209.69
2022-08-25T17:12:20.315Z,100199.91
2022-08-25T17:14:47.344Z,100211.94
2022-08-25T17:17:13.830Z,100206.06
2022-08-25T17:19:45.395Z,100211.69
2022-08-25T17:22:15.552Z,100211.50
2022-08-25T17:24:42.148Z,100211.16
2022-08-25T17:27:08.472Z,100212.50
2022-08-25T17:29:34.919Z,100218.50
2022-08-25T17:32:01.238Z,100221.00
2022-08-25T17:34:27.906Z,100214.00
2022-08-25T17:36:54.771Z,100217.84
2022-08-25T17:39:22.327Z,100229.38
2022-08-25T17:41:48.867Z,100237.44
2022-08-25T17:44:16.202Z,100240.94
2022-08-25T17:46:47.323Z,100237.13
2022-08-25T17:49:14.907Z,100248.50
2022-08-25T17:51:41.742Z,100248.25
2022-08-25T17:54:08.061Z,100250.81
2022-08-25T17:56:34.481Z,100255.78
2022-08-25T17:59:01.832Z,100249.44
2022-08-25T18:01:28.197Z,100253.91
2022-08-25T18:03:54.545Z,100242.63
2022-08-25T18:06:22.328Z,100249.13
2022-08-25T18:08:52.375Z,100246.91
2022-08-25T18:11:20.119Z,100245.91
2022-08-25T18:13:46.447Z,100249.47
2022-08-25T18:16:13.207Z,100253.72
2022-08-25T18:18:39.436Z,100256.47
2022-08-25T18:21:09.117Z,100264.34
2022-08-25T18:23:35.725Z,100266.25
2022-08-25T18:26:02.511Z,100260.31
2022-08-25T18:28:29.144Z,100269.84
2022-08-25T18:30:55.500Z,100268.94
2022-08-25T18:33:22.637Z,100272.97
2022-08-25T18:35:48.930Z,100274.03
2022-08-25T18:38:33.982Z,100265.78
2022-08-25T18:41:00.761Z,100267.47
2022-08-25T18:43:28.112Z,100272.34
2022-08-25T18:45:59.372Z,100274.88
2022-08-25T18:48:26.682Z,100271.72
2022-08-25T18:50:56.699Z,100275.53
2022-08-25T18:53:30.538Z,100281.03
2022-08-25T18:56:03.517Z,100277.25
2022-08-25T18:58:29.817Z,100272.16
2022-08-25T19:00:56.377Z,100277.03
2022-08-25T19:03:23.443Z,100272.78
2022-08-25T19:05:52.820Z,100276.63
2022-08-25T19:08:23.961Z,100278.31
2022-08-25T19:10:50.291Z,100279.38
2022-08-25T19:13:16.731Z,100272.41
2022-08-25T19:15:48.883Z,100267.31
2022-08-25T19:18:17.373Z,100274.28
2022-08-25T19:20:44.604Z,100275.16
2022-08-25T19:23:11.026Z,100277.25
2022-08-25T19:25:41.665Z,100284.44
2022-08-25T19:28:08.373Z,100282.56
2022-08-25T19:30:38.324Z,100280.22
2022-08-25T19:33:16.117Z,100282.72
2022-08-25T19:36:02.396Z,100277.66
2022-08-25T19:38:33.411Z,100280.16
2022-08-25T19:41:00.703Z,100282.72
2022-08-25T19:43:27.211Z,100281.03
2022-08-25T19:45:53.524Z,100279.28
2022-08-25T19:48:19.891Z,100280.38
2022-08-25T19:50:47.795Z,100270.88
2022-08-25T19:53:22.233Z,100279.31
2022-08-25T19:55:48.548Z,100278.91
2022-08-25T19:58:15.268Z,100278.88
2022-08-25T20:00:46.175Z,100278.03
2022-08-25T20:03:14.610Z,100277.41
2022-08-25T20:05:41.587Z,100276.75
2022-08-25T20:08:07.824Z,100275.25
2022-08-25T20:10:39.432Z,100272.50
2022-08-25T20:13:08.480Z,100273.13
2022-08-25T20:15:39.127Z,100273.13
2022-08-25T20:18:05.756Z,100271.63
2022-08-25T20:20:34.653Z,100270.13
2022-08-25T20:23:20.500Z,100265.06
2022-08-25T20:25:46.814Z,100266.31
2022-08-25T20:28:13.115Z,100264.16
2022-08-25T20:30:45.493Z,100273.44
2022-08-25T20:33:11.824Z,100270.28
2022-08-25T20:35:38.461Z,100274.47
2022-08-25T20:38:05.299Z,100275.25
2022-08-25T20:40:32.375Z,100270.41
2022-08-25T20:42:58.785Z,100269.78
2022-08-25T20:45:25.387Z,100275.38
2022-08-25T20:47:51.679Z,100271.19
2022-08-25T20:50:18.178Z,100269.94
2022-08-25T20:52:44.486Z,100267.06
2022-08-25T20:55:11.102Z,100265.22
2022-08-25T20:57:38.479Z,100261.00
2022-08-25T21:00:04.701Z,100270.69
2022-08-25T21:02:31.064Z,100266.47
2022-08-25T21:04:57.679Z,100264.97
2022-08-25T21:07:24.141Z,100263.47
2022-08-25T21:09:50.495Z,100259.28
2022-08-25T21:12:18.268Z,100258.50
2022-08-25T21:14:44.615Z,100253.66
2022-08-25T21:17:11.265Z,100256.41
2022-08-25T21:19:39.057Z,100259.16
2022-08-25T21:22:06.262Z,100258.06
2022-08-25T21:24:32.580Z,100255.94
2022-08-25T21:26:59.775Z,100253.81
2022-08-25T21:29:28.414Z,100252.13
2022-08-25T21:31:55.015Z,100257.38
2022-08-25T21:34:21.253Z,100253.22
2022-08-25T21:36:48.728Z,100256.41
2022-08-25T21:39:15.021Z,100258.00
2022-08-25T21:41:42.692Z,100257.16
2022-08-25T21:44:09.280Z,100264.09
2022-08-25T21:46:35.693Z,100253.78
2022-08-25T21:49:05.967Z,100251.69
2022-08-25T21:51:32.902Z,100262.00
2022-08-25T21:54:08.993Z,100256.91
2022-08-25T21:56:35.317Z,100254.31
2022-08-25T21:59:02.248Z,100254.31
2022-08-25T22:01:28.838Z,100259.78
2022-08-25T22:03:55.493Z,100250.50
2022-08-25T22:06:23.080Z,100246.69
2022-08-25T22:08:49.921Z,100247.09
2022-08-25T22:11:16.333Z,100239.75
2022-08-25T22:13:44.080Z,100244.78
2022-08-25T22:16:11.889Z,100239.31
2022-08-25T22:18:38.722Z,100243.13
2022-08-25T22:21:09.620Z,100245.03
2022-08-25T22:23:44.149Z,100243.41
2022-08-25T22:26:11.348Z,100240.16
2022-08-25T22:28:37.658Z,100239.31
2022-08-25T22:31:04.202Z,100237.41
2022-08-25T22:33:31.243Z,100233.44
2022-08-25T22:35:59.758Z,100234.47
2022-08-25T22:38:26.470Z,100225.31
2022-08-25T22:40:52.779Z,100225.34
2022-08-25T22:43:19.104Z,100214.28
2022-08-25T22:45:45.486Z,100216.72
2022-08-25T22:48:11.837Z,100207.66
2022-08-25T22:50:38.132Z,100207.50
2022-08-25T22:53:04.500Z,100204.94
2022-08-25T22:55:30.893Z,100208.31
2022-08-25T22:57:57.231Z,100209.56
2022-08-25T23:00:23.532Z,100209.31
2022-08-25T23:02:53.192Z,100209.44
2022-08-25T23:05:19.627Z,100209.47
2022-08-25T23:07:45.933Z,100206.25
2022-08-25T23:10:12.737Z,100202.22
2022-08-25T23:12:39.479Z,100205.00
2022-08-25T23:15:10.105Z,100204.03
2022-08-25T23:17:37.294Z,100203.91
2022-08-25T23:20:23.638Z,100205.59
2022-08-25T23:22:50.065Z,100196.47
2022-08-25T23:25:19.845Z,100198.63
2022-08-25T23:27:46.428Z,100191.06
2022-08-25T23:30:13.002Z,100194.00
2022-08-25T23:32:39.312Z,100184.09
2022-08-25T23:35:05.922Z,100188.53
2022-08-25T23:37:32.219Z,100175.03
2022-08-25T23:39:58.723Z,100175.50
2022-08-25T23:42:25.296Z,100176.91
2022-08-25T23:44:51.604Z,100170.06
2022-08-25T23:47:18.055Z,100174.69
2022-08-25T23:49:44.355Z,100175.34
2022-08-25T23:52:10.672Z,100170.63
2022-08-25T23:54:36.977Z,100172.72
2022-08-25T23:57:03.283Z,100181.06
2022-08-25T23:59:33.155Z,100183.78
